createdAt,value
2023-02-19T00:01:45.671Z,14.37
2023-02-19T00:04:17.823Z,11.53
2023-02-19T00:06:45.687Z,16.63
2023-02-19T00:09:13.753Z,15.57
2023-02-19T00:11:40.911Z,14.00
2023-02-19T00:14:08.301Z,17.63
2023-02-19T00:16:39.815Z,18.97
2023-02-19T00:19:10.769Z,16.13
2023-02-19T00:21:37.277Z,19.33
2023-02-19T00:24:05.890Z,20.00
2023-02-19T00:26:32.966Z,25.60
2023-02-19T00:29:00.999Z,17.33
2023-02-19T00:31:32.508Z,23.87
2023-02-19T00:34:04.111Z,23.80
2023-02-19T00:36:32.564Z,24.17
2023-02-19T00:38:59.040Z,25.53
2023-02-19T00:41:25.985Z,34.33
2023-02-19T00:44:03.902Z,32.00
2023-02-19T00:46:32.110Z,29.50
2023-02-19T00:48:59.285Z,29.50
2023-02-19T00:51:28.383Z,31.17
2023-02-19T00:53:55.428Z,27.07
2023-02-19T00:56:22.447Z,27.17
2023-02-19T00:58:49.822Z,28.90
2023-02-19T01:01:17.233Z,33.70
2023-02-19T01:03:44.758Z,30.30
2023-02-19T01:06:13.412Z,33.00
2023-02-19T01:08:40.080Z,32.00
2023-02-19T01:11:08.537Z,26.17
2023-02-19T01:13:35.979Z,19.60
2023-02-19T01:16:18.287Z,17.27
2023-02-19T01:18:45.504Z,14.33
2023-02-19T01:21:20.609Z,11.03
2023-02-19T01:23:47.736Z,8.40
2023-02-19T01:26:17.489Z,8.00
2023-02-19T01:28:45.733Z,7.03
2023-02-19T01:31:17.045Z,6.93
2023-02-19T01:33:50.224Z,6.50
2023-02-19T01:36:17.063Z,6.00
2023-02-19T01:38:44.285Z,4.80
2023-02-19T01:41:14.895Z,3.07
2023-02-19T01:44:08.096Z,2.53
2023-02-19T01:46:40.191Z,1.83
2023-02-19T01:49:18.563Z,3.10
2023-02-19T01:51:50.666Z,1.60
2023-02-19T01:54:22.692Z,1.60
2023-02-19T01:56:49.943Z,2.37
2023-02-19T01:59:18.394Z,2.93
2023-02-19T02:01:45.016Z,4.33
2023-02-19T02:04:14.318Z,4.73
2023-02-19T02:06:50.035Z,6.47
2023-02-19T02:09:37.946Z,7.67
2023-02-19T02:12:04.813Z,9.27
2023-02-19T02:14:35.815Z,9.63
2023-02-19T02:17:26.797Z,9.53
2023-02-19T02:20:15.215Z,10.03
2023-02-19T02:22:54.841Z,12.80
2023-02-19T02:25:56.189Z,12.53
2023-02-19T02:28:56.542Z,12.90
2023-02-19T02:31:35.441Z,16.03
2023-02-19T02:34:14.554Z,18.70
2023-02-19T02:36:46.018Z,17.90
2023-02-19T02:39:18.802Z,20.00
2023-02-19T02:42:14.122Z,20.43
2023-02-19T02:45:04.087Z,19.43
2023-02-19T02:47:42.069Z,18.90
2023-02-19T02:50:18.992Z,20.00
2023-02-19T02:53:08.144Z,19.07
2023-02-19T02:55:41.192Z,19.93
2023-02-19T02:58:10.214Z,18.07
2023-02-19T03:00:58.286Z,18.07
2023-02-19T03:03:28.461Z,17.87
2023-02-19T03:06:02.792Z,17.70
2023-02-19T03:08:35.673Z,17.37
2023-02-19T03:11:24.449Z,16.67
2023-02-19T03:14:15.542Z,17.77
2023-02-19T03:17:04.203Z,10.27
2023-02-19T03:19:35.263Z,4.10
2023-02-19T03:22:11.572Z,4.30
2023-02-19T03:25:01.577Z,3.00
2023-02-19T03:27:32.331Z,4.10
2023-02-19T03:30:05.515Z,3.70
2023-02-19T03:32:45.596Z,3.67
2023-02-19T03:35:27.370Z,4.23
2023-02-19T03:38:04.658Z,4.27
2023-02-19T03:40:48.057Z,3.90
2023-02-19T03:43:21.156Z,4.10
2023-02-19T03:46:02.088Z,4.60
2023-02-19T03:48:36.878Z,5.40
2023-02-19T03:51:22.870Z,4.90
2023-02-19T03:54:06.809Z,5.57
2023-02-19T03:56:36.722Z,5.10
2023-02-19T03:59:13.303Z,4.37
2023-02-19T04:01:58.330Z,4.60
2023-02-19T04:04:29.521Z,4.00
2023-02-19T04:06:57.369Z,4.17
2023-02-19T04:09:42.270Z,3.33
2023-02-19T04:12:14.923Z,3.93
2023-02-19T04:15:02.279Z,3.23
2023-02-19T04:17:44.002Z,3.77
2023-02-19T04:20:12.121Z,3.87
2023-02-19T04:22:40.504Z,3.63
2023-02-19T04:25:07.822Z,5.03
2023-02-19T04:27:38.547Z,3.93
2023-02-19T04:30:09.235Z,4.03
2023-02-19T04:32:35.847Z,4.10
2023-02-19T04:35:03.158Z,4.10
2023-02-19T04:37:29.721Z,3.43
2023-02-19T04:39:56.620Z,3.80
2023-02-19T04:42:23.945Z,3.63
2023-02-19T04:44:50.838Z,4.07
2023-02-19T04:47:20.140Z,4.13
2023-02-19T04:49:46.648Z,3.77
2023-02-19T04:52:13.468Z,4.30
2023-02-19T04:54:40.083Z,3.17
2023-02-19T04:57:06.638Z,2.77
2023-02-19T04:59:33.268Z,1.97
2023-02-19T05:01:59.674Z,1.83
2023-02-19T05:04:26.289Z,2.07
2023-02-19T05:06:52.861Z,2.53
2023-02-19T05:09:19.422Z,1.90
2023-02-19T05:11:45.901Z,2.20
2023-02-19T05:14:12.290Z,2.77
2023-02-19T05:16:39.269Z,1.80
2023-02-19T05:19:05.672Z,1.70
2023-02-19T05:21:32.112Z,2.00
2023-02-19T05:23:58.582Z,1.90
2023-02-19T05:26:25.290Z,2.33
2023-02-19T05:28:53.144Z,2.57
2023-02-19T05:31:20.494Z,2.47
2023-02-19T05:33:50.876Z,2.20
2023-02-19T05:36:19.043Z,3.13
2023-02-19T05:38:45.472Z,2.93
2023-02-19T05:41:14.678Z,2.37
2023-02-19T05:43:42.349Z,2.20
2023-02-19T05:46:12.294Z,2.30
2023-02-19T05:48:38.980Z,3.20
2023-02-19T05:51:10.617Z,3.10
2023-02-19T05:53:37.947Z,2.83
2023-02-19T05:56:04.886Z,4.37
2023-02-19T05:58:31.314Z,3.70
2023-02-19T06:00:57.764Z,3.97
2023-02-19T06:03:24.244Z,2.87
2023-02-19T06:05:50.951Z,2.57
2023-02-19T06:08:17.381Z,1.97
2023-02-19T06:10:44.155Z,3.67
2023-02-19T06:13:10.869Z,2.87
2023-02-19T06:15:37.701Z,3.17
2023-02-19T06:18:04.304Z,4.77
2023-02-19T06:20:30.739Z,3.60
2023-02-19T06:22:57.128Z,3.60
2023-02-19T06:25:23.890Z,2.20
2023-02-19T06:27:50.448Z,3.47
2023-02-19T06:30:17.300Z,2.93
2023-02-19T06:32:43.760Z,1.70
2023-02-19T06:35:10.173Z,4.07
2023-02-19T06:37:36.567Z,2.47
2023-02-19T06:40:03.994Z,2.53
2023-02-19T06:42:33.474Z,2.90
2023-02-19T06:44:59.955Z,3.10
2023-02-19T06:47:26.452Z,4.90
2023-02-19T06:49:53.286Z,2.53
2023-02-19T06:52:19.808Z,2.67
2023-02-19T06:54:46.220Z,3.93
2023-02-19T06:57:12.607Z,2.70
2023-02-19T06:59:39.028Z,3.77
2023-02-19T07:02:05.493Z,3.53
2023-02-19T07:04:32.144Z,3.70
2023-02-19T07:07:00.153Z,4.00
2023-02-19T07:09:28.490Z,4.33
2023-02-19T07:11:55.118Z,3.37
2023-02-19T07:14:21.634Z,3.90
2023-02-19T07:16:48.507Z,5.50
2023-02-19T07:19:15.752Z,4.90
2023-02-19T07:21:42.783Z,6.47
2023-02-19T07:24:10.156Z,4.90
2023-02-19T07:26:36.598Z,4.93
2023-02-19T07:29:03.049Z,4.27
2023-02-19T07:31:29.712Z,4.37
2023-02-19T07:33:56.421Z,5.50
2023-02-19T07:36:24.294Z,4.90
2023-02-19T07:38:58.335Z,4.67
2023-02-19T07:41:25.951Z,4.57
2023-02-19T07:43:55.616Z,4.37
2023-02-19T07:46:22.774Z,4.07
2023-02-19T07:48:49.409Z,4.93
2023-02-19T07:51:18.881Z,5.17
2023-02-19T07:53:46.696Z,6.03
2023-02-19T07:56:13.460Z,4.60
2023-02-19T07:58:40.317Z,5.33
2023-02-19T08:01:44.085Z,4.07
2023-02-19T08:04:12.118Z,3.97
2023-02-19T08:06:38.611Z,4.43
2023-02-19T08:09:05.533Z,5.93
2023-02-19T08:11:50.847Z,4.30
2023-02-19T08:14:17.304Z,4.10
2023-02-19T08:16:53.918Z,4.93
2023-02-19T08:19:21.086Z,5.63
2023-02-19T08:21:47.640Z,4.70
2023-02-19T08:24:14.065Z,6.47
2023-02-19T08:26:40.503Z,5.37
2023-02-19T08:29:07.020Z,7.13
2023-02-19T08:31:35.184Z,6.10
2023-02-19T08:34:02.616Z,5.83
2023-02-19T08:36:29.178Z,6.27
2023-02-19T08:38:55.679Z,8.00
2023-02-19T08:41:22.401Z,7.83
2023-02-19T08:43:49.246Z,6.97
2023-02-19T08:46:15.858Z,7.70
2023-02-19T08:48:42.370Z,6.17
2023-02-19T08:51:11.146Z,6.60
2023-02-19T08:53:39.202Z,7.37
2023-02-19T08:56:07.478Z,8.67
2023-02-19T08:58:33.992Z,7.03
2023-02-19T09:01:00.496Z,9.17
2023-02-19T09:03:27.405Z,7.33
2023-02-19T09:05:54.096Z,7.37
2023-02-19T09:08:20.586Z,6.73
2023-02-19T09:10:57.644Z,8.10
2023-02-19T09:13:24.215Z,7.20
2023-02-19T09:15:50.936Z,5.37
2023-02-19T09:18:17.565Z,8.37
2023-02-19T09:20:43.973Z,8.77
2023-02-19T09:23:10.380Z,6.87
2023-02-19T09:25:36.812Z,9.47
2023-02-19T09:28:03.474Z,9.30
2023-02-19T09:30:29.994Z,8.93
2023-02-19T09:32:56.465Z,7.97
2023-02-19T09:35:23.068Z,7.10
2023-02-19T09:37:49.548Z,8.50
2023-02-19T09:40:21.387Z,8.80
2023-02-19T09:42:51.116Z,8.87
2023-02-19T09:45:23.308Z,6.87
2023-02-19T09:47:54.364Z,7.53
2023-02-19T09:50:26.297Z,8.63
2023-02-19T09:52:59.556Z,7.10
2023-02-19T09:55:36.618Z,7.27
2023-02-19T09:58:16.541Z,7.90
2023-02-19T10:00:42.999Z,6.93
2023-02-19T10:03:20.632Z,5.43
2023-02-19T10:05:47.926Z,5.87
2023-02-19T10:08:19.215Z,6.57
2023-02-19T10:10:45.665Z,7.23
2023-02-19T10:13:34.880Z,8.60
2023-02-19T10:16:04.106Z,7.00
2023-02-19T10:18:41.381Z,9.90
2023-02-19T10:21:14.192Z,8.00
2023-02-19T10:23:41.352Z,10.13
2023-02-19T10:26:07.822Z,9.37
2023-02-19T10:28:35.804Z,7.73
2023-02-19T10:31:07.353Z,7.20
2023-02-19T10:33:33.780Z,9.00
2023-02-19T10:36:03.966Z,10.57
2023-02-19T10:38:36.820Z,13.30
2023-02-19T10:41:13.182Z,12.70
2023-02-19T10:43:44.172Z,12.27
2023-02-19T10:46:21.930Z,12.73
2023-02-19T10:49:01.334Z,9.23
2023-02-19T10:51:47.745Z,9.00
2023-02-19T10:54:40.791Z,9.93
2023-02-19T10:57:34.550Z,8.47
2023-02-19T11:00:18.760Z,8.63
2023-02-19T11:02:45.819Z,6.10
2023-02-19T11:05:14.400Z,6.07
2023-02-19T11:07:56.098Z,6.20
2023-02-19T11:10:33.499Z,5.23
2023-02-19T11:13:02.910Z,5.87
2023-02-19T11:15:31.176Z,4.00
2023-02-19T11:18:01.802Z,6.90
2023-02-19T11:20:55.425Z,4.90
2023-02-19T11:23:34.303Z,7.57
2023-02-19T11:26:03.992Z,4.63
2023-02-19T11:28:39.933Z,5.20
2023-02-19T11:31:20.526Z,6.03
2023-02-19T11:34:04.022Z,6.53
2023-02-19T11:36:34.381Z,4.67
2023-02-19T11:39:30.571Z,5.00
2023-02-19T11:42:20.945Z,5.43
2023-02-19T11:45:15.057Z,5.87
2023-02-19T11:48:04.900Z,4.33
2023-02-19T11:50:46.445Z,5.97
2023-02-19T11:53:24.531Z,6.00
2023-02-19T11:56:12.399Z,4.30
2023-02-19T11:59:02.603Z,4.57
2023-02-19T12:01:35.437Z,4.13
2023-02-19T12:04:12.114Z,3.87
2023-02-19T12:07:16.497Z,6.93
2023-02-19T12:10:03.349Z,4.20
2023-02-19T12:12:52.270Z,4.07
2023-02-19T12:15:30.896Z,5.07
2023-02-19T12:18:39.571Z,3.47
2023-02-19T12:21:43.704Z,5.73
2023-02-19T12:24:35.959Z,3.73
2023-02-19T12:27:24.421Z,3.67
2023-02-19T12:30:18.217Z,6.47
2023-02-19T12:32:50.984Z,6.07
2023-02-19T12:35:40.105Z,5.10
2023-02-19T12:38:23.414Z,5.30
2023-02-19T12:41:10.413Z,6.67
2023-02-19T12:43:40.350Z,4.47
2023-02-19T12:46:15.476Z,3.27
2023-02-19T12:49:26.110Z,5.83
2023-02-19T12:51:59.281Z,4.87
2023-02-19T12:54:41.936Z,5.90
2023-02-19T12:57:23.732Z,4.37
2023-02-19T13:00:39.810Z,5.17
2023-02-19T13:03:33.335Z,4.03
2023-02-19T13:06:22.443Z,6.33
2023-02-19T13:09:06.722Z,3.83
2023-02-19T13:11:42.677Z,3.50
2023-02-19T13:14:17.173Z,5.70
2023-02-19T13:16:48.678Z,3.60
2023-02-19T13:19:15.277Z,5.07
2023-02-19T13:22:02.932Z,3.03
2023-02-19T13:24:41.608Z,7.70
2023-02-19T13:27:30.973Z,5.27
2023-02-19T13:30:15.409Z,6.10
2023-02-19T13:33:03.030Z,4.53
2023-02-19T13:36:14.555Z,3.97
2023-02-19T13:38:44.806Z,3.53
2023-02-19T13:41:28.020Z,4.77
2023-02-19T13:44:08.267Z,5.70
2023-02-19T13:46:41.729Z,5.93
2023-02-19T13:49:34.320Z,8.33
2023-02-19T13:52:02.950Z,6.03
2023-02-19T13:54:37.012Z,6.00
2023-02-19T13:57:22.791Z,5.70
2023-02-19T13:59:51.190Z,6.60
2023-02-19T14:02:20.644Z,6.07
2023-02-19T14:04:54.661Z,6.30
2023-02-19T14:07:34.737Z,6.27
2023-02-19T14:10:01.969Z,5.50
2023-02-19T14:12:36.479Z,5.33
2023-02-19T14:15:44.139Z,4.87
2023-02-19T14:18:45.558Z,4.67
2023-02-19T14:21:22.521Z,6.70
2023-02-19T14:23:56.724Z,5.77
2023-02-19T14:26:25.833Z,4.60
2023-02-19T14:28:53.914Z,6.27
2023-02-19T14:31:29.208Z,5.73
2023-02-19T14:34:04.811Z,6.27
2023-02-19T14:36:33.769Z,7.60
2023-02-19T14:39:04.901Z,7.07
2023-02-19T14:41:34.137Z,6.63
2023-02-19T14:44:02.134Z,7.33
2023-02-19T14:46:37.374Z,5.90
2023-02-19T14:49:33.068Z,5.30
2023-02-19T14:52:12.271Z,6.83
2023-02-19T14:55:01.322Z,5.20
2023-02-19T14:57:38.159Z,6.27
2023-02-19T15:00:23.187Z,6.70
2023-02-19T15:02:52.624Z,7.77
2023-02-19T15:05:25.009Z,6.80
2023-02-19T15:07:54.913Z,5.63
2023-02-19T15:10:21.788Z,6.50
2023-02-19T15:12:55.756Z,5.00
2023-02-19T15:15:27.107Z,5.67
2023-02-19T15:17:55.635Z,5.60
2023-02-19T15:20:27.827Z,4.07
2023-02-19T15:22:56.300Z,5.60
2023-02-19T15:25:29.300Z,5.50
2023-02-19T15:27:55.923Z,5.17
2023-02-19T15:30:31.942Z,5.40
2023-02-19T15:33:00.129Z,6.67
2023-02-19T15:35:33.826Z,5.67
2023-02-19T15:38:00.802Z,6.40
2023-02-19T15:40:31.272Z,5.27
2023-02-19T15:43:00.181Z,5.30
2023-02-19T15:45:39.356Z,5.37
2023-02-19T15:48:15.047Z,6.57
2023-02-19T15:50:49.001Z,3.50
2023-02-19T15:53:31.585Z,5.20
2023-02-19T15:56:04.181Z,4.33
2023-02-19T15:58:42.627Z,4.30
2023-02-19T16:01:37.686Z,7.40
2023-02-19T16:04:11.327Z,6.73
2023-02-19T16:06:52.332Z,6.57
2023-02-19T16:09:28.832Z,6.10
2023-02-19T16:11:57.869Z,4.07
2023-02-19T16:14:37.698Z,4.87
2023-02-19T16:17:16.446Z,7.57
2023-02-19T16:19:43.668Z,19.60
2023-02-19T16:22:12.543Z,14.27
2023-02-19T16:24:45.274Z,8.73
2023-02-19T16:27:33.314Z,14.13
2023-02-19T16:30:07.640Z,10.50
2023-02-19T16:32:34.167Z,9.93
2023-02-19T16:35:02.521Z,10.00
2023-02-19T16:37:40.820Z,17.03
2023-02-19T16:40:07.441Z,9.87
2023-02-19T16:42:36.100Z,13.17
2023-02-19T16:45:02.557Z,9.60
2023-02-19T16:47:32.013Z,6.83
2023-02-19T16:50:01.255Z,7.43
2023-02-19T16:52:28.601Z,9.83
2023-02-19T16:54:55.201Z,9.47
2023-02-19T16:57:21.725Z,6.57
2023-02-19T16:59:48.437Z,8.03
2023-02-19T17:02:19.337Z,7.77
2023-02-19T17:04:47.451Z,12.33
2023-02-19T17:07:18.541Z,10.10
2023-02-19T17:09:45.292Z,11.53
2023-02-19T17:12:13.422Z,11.90
2023-02-19T17:14:39.897Z,13.37
2023-02-19T17:17:06.394Z,11.33
2023-02-19T17:19:32.811Z,10.20
2023-02-19T17:21:59.279Z,10.37
2023-02-19T17:24:25.857Z,8.70
2023-02-19T17:26:52.361Z,11.03
2023-02-19T17:29:19.857Z,10.60
2023-02-19T17:31:46.370Z,10.63
2023-02-19T17:34:12.826Z,11.67
2023-02-19T17:36:40.349Z,13.37
2023-02-19T17:39:15.332Z,11.30
2023-02-19T17:41:42.320Z,10.97
2023-02-19T17:44:09.025Z,14.00
2023-02-19T17:46:35.828Z,11.83
2023-02-19T17:49:02.354Z,10.53
2023-02-19T17:51:28.865Z,11.13
2023-02-19T17:53:55.449Z,9.83
2023-02-19T17:56:25.726Z,8.97
2023-02-19T17:58:53.493Z,10.57
2023-02-19T18:01:20.547Z,10.00
2023-02-19T18:03:47.143Z,9.77
2023-02-19T18:06:14.384Z,10.57
2023-02-19T18:08:47.002Z,11.40
2023-02-19T18:11:13.615Z,11.13
2023-02-19T18:13:40.297Z,16.80
2023-02-19T18:16:07.027Z,20.23
2023-02-19T18:18:33.438Z,18.63
2023-02-19T18:21:00.173Z,16.77
2023-02-19T18:23:27.523Z,16.00
2023-02-19T18:25:54.055Z,17.13
2023-02-19T18:28:20.483Z,14.50
2023-02-19T18:30:47.028Z,12.00
2023-02-19T18:33:13.607Z,12.93
2023-02-19T18:35:40.136Z,9.27
2023-02-19T18:38:06.544Z,10.20
2023-02-19T18:40:33.032Z,11.10
2023-02-19T18:42:59.665Z,10.40
2023-02-19T18:45:27.593Z,12.60
2023-02-19T18:47:54.144Z,18.80
2023-02-19T18:50:20.589Z,13.60
2023-02-19T18:52:47.667Z,35.27
2023-02-19T18:55:14.262Z,17.67
2023-02-19T18:57:40.778Z,19.03
2023-02-19T19:00:08.326Z,18.00
2023-02-19T19:02:48.246Z,14.20
2023-02-19T19:05:18.574Z,13.33
2023-02-19T19:07:45.018Z,14.93
2023-02-19T19:10:11.540Z,12.37
2023-02-19T19:12:37.945Z,15.67
2023-02-19T19:15:04.965Z,12.80
2023-02-19T19:17:31.385Z,11.73
2023-02-19T19:19:57.844Z,14.73
2023-02-19T19:22:25.094Z,14.60
2023-02-19T19:24:51.489Z,12.63
2023-02-19T19:27:20.248Z,12.60
2023-02-19T19:29:47.876Z,17.60
2023-02-19T19:32:14.558Z,11.60
2023-02-19T19:34:42.680Z,10.73
2023-02-19T19:37:09.854Z,11.73
2023-02-19T19:39:36.925Z,9.40
2023-02-19T19:42:03.927Z,11.93
2023-02-19T19:44:30.350Z,12.30
2023-02-19T19:46:56.859Z,13.30
2023-02-19T19:49:24.082Z,10.07
2023-02-19T19:51:50.624Z,12.30
2023-02-19T19:54:17.071Z,12.23
2023-02-19T19:56:45.866Z,11.83
2023-02-19T19:59:14.979Z,11.03
2023-02-19T20:01:52.883Z,12.57
2023-02-19T20:04:21.556Z,13.00
2023-02-19T20:06:48.555Z,14.53
2023-02-19T20:09:16.096Z,13.33
2023-02-19T20:11:52.903Z,12.13
2023-02-19T20:14:21.348Z,13.53
2023-02-19T20:16:48.248Z,13.47
2023-02-19T20:19:15.539Z,13.17
2023-02-19T20:21:50.440Z,15.10
2023-02-19T20:24:19.209Z,15.10
2023-02-19T20:26:45.733Z,15.63
2023-02-19T20:29:12.691Z,21.87
2023-02-19T20:31:39.913Z,14.60
2023-02-19T20:34:06.433Z,13.77
2023-02-19T20:36:32.935Z,15.80
2023-02-19T20:38:59.393Z,16.63
2023-02-19T20:41:26.347Z,21.00
2023-02-19T20:43:52.924Z,16.60
2023-02-19T20:46:19.443Z,14.50
2023-02-19T20:48:46.145Z,15.50
2023-02-19T20:51:12.644Z,18.33
2023-02-19T20:53:40.637Z,18.53
2023-02-19T20:56:07.184Z,22.47
2023-02-19T20:58:33.667Z,17.47
2023-02-19T21:01:00.980Z,17.93
2023-02-19T21:03:27.585Z,14.47
2023-02-19T21:05:54.142Z,14.50
2023-02-19T21:08:20.603Z,15.87
2023-02-19T21:10:47.064Z,13.47
2023-02-19T21:13:13.896Z,12.50
2023-02-19T21:15:40.658Z,17.17
2023-02-19T21:18:07.178Z,16.77
2023-02-19T21:20:34.753Z,18.03
2023-02-19T21:23:04.431Z,19.30
2023-02-19T21:25:33.020Z,17.00
2023-02-19T21:27:59.478Z,16.87
2023-02-19T21:30:26.135Z,14.60
2023-02-19T21:32:52.890Z,18.23
2023-02-19T21:35:19.356Z,12.27
2023-02-19T21:37:45.757Z,12.73
2023-02-19T21:40:12.876Z,11.17
2023-02-19T21:42:39.370Z,17.57
2023-02-19T21:45:06.290Z,11.80
2023-02-19T21:47:32.729Z,11.53
2023-02-19T21:49:59.399Z,10.27
2023-02-19T21:52:26.908Z,12.13
2023-02-19T21:54:53.949Z,12.30
2023-02-19T21:57:20.411Z,11.90
2023-02-19T21:59:46.823Z,12.13
2023-02-19T22:02:13.449Z,12.63
2023-02-19T22:04:39.893Z,12.53
2023-02-19T22:07:06.342Z,12.43
2023-02-19T22:09:32.751Z,12.87
2023-02-19T22:11:59.279Z,15.10
2023-02-19T22:14:25.943Z,13.17
2023-02-19T22:16:52.887Z,13.50
2023-02-19T22:19:19.341Z,14.30
2023-02-19T22:21:45.813Z,13.27
2023-02-19T22:24:21.345Z,16.47
2023-02-19T22:26:50.553Z,16.30
2023-02-19T22:29:17.641Z,15.33
2023-02-19T22:31:44.486Z,16.00
2023-02-19T22:34:11.910Z,15.00
2023-02-19T22:36:38.920Z,15.90
2023-02-19T22:39:07.662Z,15.33
2023-02-19T22:41:34.759Z,13.97
2023-02-19T22:44:01.619Z,18.13
2023-02-19T22:46:30.409Z,14.80
2023-02-19T22:48:57.774Z,18.53
2023-02-19T22:51:25.280Z,19.13
2023-02-19T22:53:57.339Z,17.67
2023-02-19T22:56:26.248Z,16.77
2023-02-19T22:58:54.017Z,18.53
2023-02-19T23:01:21.171Z,18.17
2023-02-19T23:03:48.839Z,14.43
2023-02-19T23:06:17.151Z,17.17
2023-02-19T23:08:44.114Z,16.97
2023-02-19T23:11:11.960Z,16.90
2023-02-19T23:13:42.533Z,14.53
2023-02-19T23:16:09.170Z,14.57
2023-02-19T23:18:35.825Z,16.43
2023-02-19T23:21:03.675Z,13.73
2023-02-19T23:23:30.217Z,14.73
2023-02-19T23:25:56.686Z,16.47
2023-02-19T23:28:23.363Z,13.47
2023-02-19T23:30:50.576Z,14.83
2023-02-19T23:33:17.336Z,13.67
2023-02-19T23:35:43.821Z,12.80
2023-02-19T23:38:10.971Z,15.83
2023-02-19T23:40:37.469Z,11.80
2023-02-19T23:43:04.141Z,14.20
2023-02-19T23:45:31.160Z,12.73
2023-02-19T23:47:57.969Z,12.40
2023-02-19T23:50:24.423Z,14.37
2023-02-19T23:52:50.876Z,11.33
2023-02-19T23:55:17.498Z,11.53
2023-02-19T23:57:43.918Z,11.63
